createdAt,value
2024-02-26T00:01:59.339Z,1.83
2024-02-26T00:04:46.214Z,2.20
2024-02-26T00:07:33.393Z,2.30
2024-02-26T00:10:20.196Z,1.93
2024-02-26T00:13:06.994Z,2.20
2024-02-26T00:15:53.843Z,2.13
2024-02-26T00:18:40.772Z,1.83
2024-02-26T00:21:27.700Z,2.10
2024-02-26T00:24:14.756Z,2.03
2024-02-26T00:27:01.652Z,2.10
2024-02-26T00:29:48.481Z,2.27
2024-02-26T00:32:23.702Z,2.23
2024-02-26T00:34:51.771Z,2.00
2024-02-26T00:37:38.705Z,2.13
2024-02-26T00:40:26.073Z,1.90
2024-02-26T00:43:12.881Z,1.80
2024-02-26T00:45:59.729Z,2.10
2024-02-26T00:48:46.692Z,1.97
2024-02-26T00:51:33.815Z,1.87
2024-02-26T00:54:20.835Z,1.70
2024-02-26T00:57:07.726Z,1.80
2024-02-26T00:59:54.570Z,1.80
2024-02-26T01:02:41.653Z,1.87
2024-02-26T01:05:32.667Z,2.40
2024-02-26T01:08:19.561Z,1.63
2024-02-26T01:11:06.509Z,1.60
2024-02-26T01:13:53.448Z,1.90
2024-02-26T01:16:40.542Z,1.70
2024-02-26T01:19:27.599Z,1.53
2024-02-26T01:22:14.589Z,2.00
2024-02-26T01:25:01.474Z,1.80
2024-02-26T01:27:48.312Z,1.53
2024-02-26T01:30:35.296Z,1.67
2024-02-26T01:33:22.421Z,1.50
2024-02-26T01:36:09.335Z,1.47
2024-02-26T01:38:56.259Z,1.83
2024-02-26T01:41:43.262Z,1.47
2024-02-26T01:44:33.639Z,1.53
2024-02-26T01:47:21.507Z,1.70
2024-02-26T01:50:08.575Z,1.60
2024-02-26T01:52:56.138Z,1.87
2024-02-26T01:55:45.264Z,1.67
2024-02-26T01:58:32.710Z,1.40
2024-02-26T02:01:20.567Z,1.67
2024-02-26T02:04:07.501Z,1.33
2024-02-26T02:06:54.435Z,1.70
2024-02-26T02:09:41.688Z,1.40
2024-02-26T02:12:29.401Z,1.57
2024-02-26T02:15:16.274Z,1.50
2024-02-26T02:18:03.374Z,1.50
2024-02-26T02:20:54.322Z,1.47
2024-02-26T02:23:41.332Z,1.23
2024-02-26T02:26:28.339Z,1.47
2024-02-26T02:29:15.249Z,1.47
2024-02-26T02:32:02.659Z,1.60
2024-02-26T02:34:50.855Z,1.50
2024-02-26T02:37:38.032Z,1.57
2024-02-26T02:40:25.470Z,1.50
2024-02-26T02:43:12.354Z,1.40
2024-02-26T02:45:59.181Z,1.80
2024-02-26T02:48:46.315Z,1.50
2024-02-26T02:51:33.224Z,1.70
2024-02-26T02:54:20.109Z,1.53
2024-02-26T02:57:07.151Z,2.20
2024-02-26T02:59:54.028Z,1.77
2024-02-26T03:02:40.962Z,1.60
2024-02-26T03:05:28.317Z,2.07
2024-02-26T03:08:15.222Z,1.93
2024-02-26T03:11:02.090Z,2.17
2024-02-26T03:13:49.006Z,1.73
2024-02-26T03:16:35.962Z,2.00
2024-02-26T03:19:23.180Z,1.90
2024-02-26T03:22:10.469Z,1.83
2024-02-26T03:24:57.469Z,1.77
2024-02-26T03:27:44.384Z,1.93
2024-02-26T03:30:31.567Z,1.90
2024-02-26T03:33:18.483Z,2.03
2024-02-26T03:36:05.412Z,2.10
2024-02-26T03:38:52.339Z,1.70
2024-02-26T03:41:39.188Z,2.57
2024-02-26T03:44:25.990Z,1.87
2024-02-26T03:47:12.837Z,2.40
2024-02-26T03:49:59.658Z,2.10
2024-02-26T03:52:46.476Z,2.47
2024-02-26T03:55:33.367Z,2.03
2024-02-26T03:58:20.196Z,2.30
2024-02-26T04:01:04.901Z,2.63
2024-02-26T04:03:51.806Z,2.40
2024-02-26T04:06:41.569Z,2.23
2024-02-26T04:09:28.522Z,2.77
2024-02-26T04:12:15.562Z,2.13
2024-02-26T04:15:02.550Z,2.10
2024-02-26T04:17:49.447Z,2.13
2024-02-26T04:20:36.872Z,2.17
2024-02-26T04:23:25.258Z,2.43
2024-02-26T04:26:12.129Z,2.60
2024-02-26T04:28:58.921Z,2.50
2024-02-26T04:31:45.887Z,2.40
2024-02-26T04:34:32.847Z,2.20
2024-02-26T04:37:19.740Z,2.50
2024-02-26T04:40:06.626Z,2.20
2024-02-26T04:42:53.447Z,2.40
2024-02-26T04:45:40.325Z,1.80
2024-02-26T04:48:27.633Z,2.20
2024-02-26T04:51:14.693Z,2.70
2024-02-26T04:54:01.646Z,2.50
2024-02-26T04:56:48.524Z,2.40
2024-02-26T04:59:35.374Z,2.50
2024-02-26T05:02:22.286Z,2.87
2024-02-26T05:05:09.219Z,2.57
2024-02-26T05:08:01.812Z,2.37
2024-02-26T05:10:48.693Z,2.90
2024-02-26T05:13:35.582Z,3.27
2024-02-26T05:16:22.461Z,3.00
2024-02-26T05:19:09.457Z,2.83
2024-02-26T05:21:56.318Z,3.37
2024-02-26T05:24:43.106Z,3.37
2024-02-26T05:27:31.264Z,3.20
2024-02-26T05:30:18.228Z,3.53
2024-02-26T05:33:05.143Z,2.60
2024-02-26T05:35:52.240Z,2.40
2024-02-26T05:38:39.095Z,2.17
2024-02-26T05:41:25.975Z,1.80
2024-02-26T05:44:13.685Z,1.97
2024-02-26T05:47:00.604Z,1.90
2024-02-26T05:49:47.506Z,1.73
2024-02-26T05:52:34.396Z,1.80
2024-02-26T05:55:21.213Z,2.13
2024-02-26T05:58:08.254Z,1.77
2024-02-26T06:00:55.132Z,2.13
2024-02-26T06:03:42.235Z,2.20
2024-02-26T06:06:29.184Z,1.90
2024-02-26T06:09:16.206Z,2.30
2024-02-26T06:12:03.200Z,2.40
2024-02-26T06:14:50.112Z,2.50
2024-02-26T06:17:37.013Z,2.67
2024-02-26T06:20:24.008Z,2.30
2024-02-26T06:23:12.163Z,2.40
2024-02-26T06:25:59.058Z,2.20
2024-02-26T06:28:45.878Z,2.13
2024-02-26T06:31:32.727Z,1.90
2024-02-26T06:34:19.700Z,2.03
2024-02-26T06:37:06.776Z,1.90
2024-02-26T06:39:34.120Z,2.03
2024-02-26T06:42:04.178Z,1.60
2024-02-26T06:44:51.012Z,2.27
2024-02-26T06:47:38.282Z,1.90
2024-02-26T06:50:25.459Z,1.90
2024-02-26T06:53:12.293Z,1.50
2024-02-26T06:55:59.126Z,1.40
2024-02-26T06:58:45.938Z,1.60
2024-02-26T07:01:34.033Z,1.40
2024-02-26T07:04:21.107Z,1.80
2024-02-26T07:07:08.608Z,1.77
2024-02-26T07:09:55.576Z,1.70
2024-02-26T07:12:42.423Z,1.57
2024-02-26T07:15:30.889Z,1.93
2024-02-26T07:17:58.017Z,1.67
2024-02-26T07:20:44.957Z,2.10
2024-02-26T07:23:31.868Z,1.70
2024-02-26T07:26:18.784Z,1.83
2024-02-26T07:29:05.673Z,1.93
2024-02-26T07:31:52.646Z,2.00
2024-02-26T07:34:39.695Z,2.00
2024-02-26T07:37:26.746Z,2.10
2024-02-26T07:40:13.664Z,1.93
2024-02-26T07:43:00.606Z,2.20
2024-02-26T07:45:47.553Z,1.90
2024-02-26T07:48:34.506Z,2.20
2024-02-26T07:51:21.499Z,1.80
2024-02-26T07:54:08.439Z,1.77
2024-02-26T07:56:55.463Z,2.03
2024-02-26T07:59:42.442Z,2.00
2024-02-26T08:02:29.301Z,1.67
2024-02-26T08:04:56.271Z,1.70
2024-02-26T08:07:43.093Z,1.93
2024-02-26T08:10:33.198Z,1.70
2024-02-26T08:13:20.627Z,1.77
2024-02-26T08:16:07.437Z,2.00
2024-02-26T08:18:54.404Z,1.97
2024-02-26T08:21:41.267Z,1.73
2024-02-26T08:24:28.505Z,1.70
2024-02-26T08:27:15.688Z,2.10
2024-02-26T08:30:02.711Z,2.00
2024-02-26T08:32:52.071Z,1.90
2024-02-26T08:35:40.244Z,1.77
2024-02-26T08:38:27.513Z,1.97
2024-02-26T08:41:14.361Z,1.80
2024-02-26T08:44:01.182Z,1.80
2024-02-26T08:46:48.004Z,2.23
2024-02-26T08:49:35.036Z,1.90
2024-02-26T08:52:22.023Z,1.67
2024-02-26T08:55:08.967Z,2.07
2024-02-26T08:57:56.100Z,2.10
2024-02-26T09:00:43.003Z,1.80
2024-02-26T09:03:29.964Z,1.83
2024-02-26T09:06:17.049Z,2.00
2024-02-26T09:09:04.038Z,1.83
2024-02-26T09:11:51.009Z,2.13
2024-02-26T09:14:38.174Z,1.63
2024-02-26T09:17:25.193Z,2.40
2024-02-26T09:20:12.369Z,2.10
2024-02-26T09:22:59.228Z,2.20
2024-02-26T09:25:46.040Z,2.10
2024-02-26T09:28:33.063Z,1.90
2024-02-26T09:31:19.872Z,2.00
2024-02-26T09:34:06.956Z,1.90
2024-02-26T09:36:58.293Z,1.80
2024-02-26T09:39:50.199Z,2.03
2024-02-26T09:42:39.985Z,1.60
2024-02-26T09:45:30.624Z,1.90
2024-02-26T09:48:18.209Z,2.17
2024-02-26T09:51:05.253Z,1.93
2024-02-26T09:53:53.431Z,2.13
2024-02-26T09:56:49.366Z,1.93
2024-02-26T09:59:43.695Z,1.63
2024-02-26T10:02:34.119Z,1.80
2024-02-26T10:05:24.216Z,1.53
2024-02-26T10:08:12.138Z,1.57
2024-02-26T10:11:00.237Z,1.87
2024-02-26T10:13:47.124Z,1.83
2024-02-26T10:16:34.522Z,1.70
2024-02-26T10:19:21.617Z,1.70
2024-02-26T10:22:08.444Z,1.53
2024-02-26T10:24:54.448Z,1.97
2024-02-26T10:27:42.102Z,2.30
2024-02-26T10:30:40.427Z,2.30
2024-02-26T10:33:29.551Z,2.07
2024-02-26T10:36:17.738Z,1.90
2024-02-26T10:39:04.773Z,1.60
2024-02-26T10:41:54.570Z,2.00
2024-02-26T10:44:41.448Z,2.17
2024-02-26T10:47:29.008Z,2.03
2024-02-26T10:50:17.101Z,2.03
2024-02-26T10:53:04.309Z,2.20
2024-02-26T10:55:52.247Z,2.30
2024-02-26T10:58:40.127Z,1.87
2024-02-26T11:01:27.433Z,1.90
2024-02-26T11:04:14.949Z,2.50
2024-02-26T11:07:01.912Z,2.10
2024-02-26T11:09:49.351Z,2.10
2024-02-26T11:12:37.114Z,2.27
2024-02-26T11:15:24.733Z,2.13
2024-02-26T11:18:13.826Z,1.90
2024-02-26T11:20:42.736Z,1.90
2024-02-26T11:23:29.645Z,2.10
2024-02-26T11:26:19.712Z,2.23
2024-02-26T11:29:07.444Z,2.50
2024-02-26T11:31:54.971Z,2.00
2024-02-26T11:34:42.137Z,2.20
2024-02-26T11:37:39.986Z,2.07
2024-02-26T11:40:35.524Z,1.80
2024-02-26T11:43:22.535Z,1.60
2024-02-26T11:46:10.885Z,2.00
2024-02-26T11:48:58.140Z,1.63
2024-02-26T11:51:47.339Z,1.50
2024-02-26T11:55:20.401Z,1.67
2024-02-26T11:58:07.287Z,1.50
2024-02-26T12:00:54.152Z,1.53
2024-02-26T12:03:41.998Z,1.43
2024-02-26T12:06:29.328Z,1.50
2024-02-26T12:09:17.495Z,1.50
2024-02-26T12:12:04.467Z,1.30
2024-02-26T12:14:54.672Z,1.50
2024-02-26T12:17:43.590Z,1.40
2024-02-26T12:20:31.857Z,1.30
2024-02-26T12:23:19.256Z,1.60
2024-02-26T12:26:08.657Z,1.10
2024-02-26T12:28:56.555Z,1.60
2024-02-26T12:31:43.339Z,1.50
2024-02-26T12:34:30.821Z,1.60
2024-02-26T12:37:17.939Z,1.40
2024-02-26T12:40:05.431Z,1.57
2024-02-26T12:42:53.909Z,1.60
2024-02-26T12:45:40.763Z,1.37
2024-02-26T12:48:28.389Z,1.30
2024-02-26T12:51:15.582Z,1.30
2024-02-26T12:54:02.787Z,1.63
2024-02-26T12:56:51.651Z,1.20
2024-02-26T12:59:38.490Z,1.57
2024-02-26T13:02:26.035Z,1.30
2024-02-26T13:05:13.130Z,1.60
2024-02-26T13:08:06.113Z,1.57
2024-02-26T13:10:58.602Z,1.40
2024-02-26T13:13:45.552Z,1.40
2024-02-26T13:16:36.439Z,1.23
2024-02-26T13:19:32.367Z,1.60
2024-02-26T13:22:28.600Z,1.43
2024-02-26T13:25:17.240Z,2.00
2024-02-26T13:28:04.116Z,1.70
2024-02-26T13:30:50.967Z,1.70
2024-02-26T13:33:38.077Z,1.57
2024-02-26T13:36:25.513Z,1.60
2024-02-26T13:39:14.020Z,1.60
2024-02-26T13:42:01.032Z,1.70
2024-02-26T13:44:48.071Z,1.67
2024-02-26T13:47:35.145Z,1.67
2024-02-26T13:50:22.738Z,2.03
2024-02-26T13:53:09.612Z,1.63
2024-02-26T13:55:37.482Z,1.80
2024-02-26T13:58:05.097Z,1.80
2024-02-26T14:00:52.273Z,2.07
2024-02-26T14:03:20.406Z,1.70
2024-02-26T14:05:48.702Z,1.60
2024-02-26T14:08:36.235Z,1.60
2024-02-26T14:11:23.134Z,1.23
2024-02-26T14:14:10.049Z,1.47
2024-02-26T14:16:57.378Z,1.40
2024-02-26T14:19:44.405Z,1.43
2024-02-26T14:22:34.790Z,1.23
2024-02-26T14:25:21.648Z,1.70
2024-02-26T14:28:12.668Z,1.60
2024-02-26T14:31:04.004Z,1.50
2024-02-26T14:33:52.752Z,1.97
2024-02-26T14:36:42.144Z,1.83
2024-02-26T14:39:29.204Z,1.70
2024-02-26T14:42:16.651Z,1.73
2024-02-26T14:45:03.623Z,1.53
2024-02-26T14:47:50.565Z,2.07
2024-02-26T14:50:37.516Z,2.00
2024-02-26T14:53:24.519Z,2.10
2024-02-26T14:56:11.398Z,2.20
2024-02-26T14:58:59.377Z,2.00
2024-02-26T15:01:47.974Z,1.83
2024-02-26T15:04:35.315Z,2.03
2024-02-26T15:07:22.436Z,2.10
2024-02-26T15:10:09.436Z,2.13
2024-02-26T15:12:56.342Z,2.20
2024-02-26T15:15:43.421Z,2.17
2024-02-26T15:18:30.476Z,2.37
2024-02-26T15:21:17.619Z,2.10
2024-02-26T15:23:58.802Z,2.03
2024-02-26T15:26:32.026Z,1.90
2024-02-26T15:28:59.030Z,2.20
2024-02-26T15:31:25.916Z,2.13
2024-02-26T15:33:53.151Z,2.00
2024-02-26T15:36:20.270Z,1.97
2024-02-26T15:38:47.189Z,2.30
2024-02-26T15:41:15.095Z,2.00
2024-02-26T15:43:42.654Z,2.20
2024-02-26T15:46:09.740Z,2.23
2024-02-26T15:48:39.865Z,2.40
2024-02-26T15:51:07.025Z,2.83
2024-02-26T15:53:34.066Z,3.13
2024-02-26T15:56:01.660Z,3.07
2024-02-26T15:58:28.696Z,2.97
2024-02-26T16:00:56.807Z,3.17
2024-02-26T16:03:26.354Z,2.50
2024-02-26T16:05:53.888Z,2.20
2024-02-26T16:08:43.288Z,2.40
2024-02-26T16:11:30.163Z,2.30
2024-02-26T16:14:34.452Z,2.23
2024-02-26T16:17:39.402Z,2.73
2024-02-26T16:20:27.695Z,2.43
2024-02-26T16:23:14.609Z,2.03
2024-02-26T16:26:01.474Z,2.00
2024-02-26T16:28:48.293Z,2.97
2024-02-26T16:31:35.153Z,2.90
2024-02-26T16:34:22.204Z,2.23
2024-02-26T16:37:09.165Z,1.90
2024-02-26T16:39:57.983Z,2.00
2024-02-26T16:42:44.830Z,1.83
2024-02-26T16:45:31.810Z,1.70
2024-02-26T16:48:18.938Z,1.47
2024-02-26T16:51:05.926Z,1.63
2024-02-26T16:53:52.780Z,1.47
2024-02-26T16:56:39.741Z,1.37
2024-02-26T16:59:26.635Z,1.30
2024-02-26T17:02:13.533Z,1.20
2024-02-26T17:05:01.252Z,1.60
2024-02-26T17:07:48.177Z,1.57
2024-02-26T17:10:35.302Z,1.73
2024-02-26T17:13:22.202Z,1.90
2024-02-26T17:16:09.137Z,1.87
2024-02-26T17:18:56.135Z,1.83
2024-02-26T17:21:44.239Z,1.90
2024-02-26T17:24:31.211Z,2.10
2024-02-26T17:27:18.178Z,1.83
2024-02-26T17:30:05.111Z,1.47
2024-02-26T17:32:52.125Z,1.60
2024-02-26T17:35:39.076Z,1.20
2024-02-26T17:38:25.908Z,1.33
2024-02-26T17:41:13.216Z,1.60
2024-02-26T17:44:00.145Z,1.40
2024-02-26T17:46:47.017Z,1.40
2024-02-26T17:49:34.194Z,1.63
2024-02-26T17:52:21.845Z,1.37
2024-02-26T17:55:08.710Z,1.40
2024-02-26T17:57:55.674Z,1.33
2024-02-26T18:00:42.620Z,1.30
2024-02-26T18:03:29.592Z,1.13
2024-02-26T18:06:16.602Z,1.17
2024-02-26T18:09:03.653Z,1.33
2024-02-26T18:11:50.506Z,1.40
2024-02-26T18:14:37.474Z,1.30
2024-02-26T18:17:24.552Z,1.03
2024-02-26T18:20:11.499Z,1.17
2024-02-26T18:22:58.585Z,1.17
2024-02-26T18:25:45.576Z,1.20
2024-02-26T18:28:32.483Z,1.40
2024-02-26T18:31:19.307Z,1.50
2024-02-26T18:34:06.398Z,1.20
2024-02-26T18:36:53.357Z,1.50
2024-02-26T18:39:40.398Z,1.27
2024-02-26T18:42:27.643Z,1.40
2024-02-26T18:45:14.574Z,1.57
2024-02-26T18:48:01.580Z,1.50
2024-02-26T18:50:49.197Z,1.67
2024-02-26T18:53:36.088Z,1.27
2024-02-26T18:56:23.055Z,1.30
2024-02-26T18:59:09.979Z,1.43
2024-02-26T19:01:56.785Z,1.33
2024-02-26T19:04:43.680Z,1.30
2024-02-26T19:07:30.800Z,1.13
2024-02-26T19:10:17.866Z,1.30
2024-02-26T19:13:07.304Z,1.40
2024-02-26T19:15:55.581Z,1.00
2024-02-26T19:18:42.468Z,1.63
2024-02-26T19:21:29.425Z,1.07
2024-02-26T19:24:16.667Z,1.43
2024-02-26T19:26:45.935Z,1.10
2024-02-26T19:29:32.808Z,1.27
2024-02-26T19:32:19.697Z,1.40
2024-02-26T19:35:06.665Z,1.40
2024-02-26T19:37:54.143Z,1.30
2024-02-26T19:40:40.937Z,1.70
2024-02-26T19:43:27.898Z,1.60
2024-02-26T19:46:15.207Z,1.60
2024-02-26T19:49:02.334Z,1.33
2024-02-26T19:51:49.363Z,1.40
2024-02-26T19:54:36.741Z,1.40
2024-02-26T19:57:23.687Z,1.53
2024-02-26T20:00:10.571Z,1.63
2024-02-26T20:03:01.203Z,1.70
2024-02-26T20:05:48.268Z,1.60
2024-02-26T20:08:35.284Z,1.50
2024-02-26T20:11:22.298Z,1.53
2024-02-26T20:14:09.151Z,1.73
2024-02-26T20:16:56.010Z,1.60
2024-02-26T20:19:42.923Z,1.50
2024-02-26T20:22:31.832Z,1.70
2024-02-26T20:25:18.702Z,1.47
2024-02-26T20:28:05.516Z,1.47
2024-02-26T20:30:52.456Z,1.77
2024-02-26T20:33:39.564Z,1.63
2024-02-26T20:36:26.939Z,1.53
2024-02-26T20:39:13.800Z,1.37
2024-02-26T20:42:00.690Z,1.60
2024-02-26T20:44:47.701Z,1.77
2024-02-26T20:47:35.982Z,1.90
2024-02-26T20:50:22.923Z,1.63
2024-02-26T20:53:13.683Z,1.43
2024-02-26T20:56:00.976Z,1.67
2024-02-26T20:58:47.823Z,1.43
2024-02-26T21:01:34.675Z,1.67
2024-02-26T21:04:24.506Z,1.70
2024-02-26T21:07:11.961Z,1.40
2024-02-26T21:09:58.886Z,1.57
2024-02-26T21:12:46.186Z,1.47
2024-02-26T21:15:33.128Z,1.40
2024-02-26T21:18:20.170Z,1.40
2024-02-26T21:21:07.151Z,1.43
2024-02-26T21:23:54.154Z,1.50
2024-02-26T21:26:41.027Z,1.60
2024-02-26T21:29:27.922Z,1.53
2024-02-26T21:32:14.776Z,1.50
2024-02-26T21:35:02.045Z,1.37
2024-02-26T21:37:48.987Z,1.80
2024-02-26T21:40:35.827Z,1.40
2024-02-26T21:43:22.698Z,1.70
2024-02-26T21:46:09.484Z,1.50
2024-02-26T21:48:56.668Z,1.70
2024-02-26T21:51:43.778Z,1.43
2024-02-26T21:54:32.126Z,1.43
2024-02-26T21:57:19.214Z,1.37
2024-02-26T22:00:07.727Z,1.30
2024-02-26T22:03:00.469Z,1.90
2024-02-26T22:05:47.491Z,1.70
2024-02-26T22:08:34.617Z,1.47
2024-02-26T22:11:21.497Z,1.30
2024-02-26T22:14:08.462Z,1.50
2024-02-26T22:16:55.339Z,1.50
2024-02-26T22:19:42.347Z,1.30
2024-02-26T22:22:30.492Z,1.30
2024-02-26T22:25:17.376Z,1.37
2024-02-26T22:28:04.684Z,1.20
2024-02-26T22:30:51.500Z,1.50
2024-02-26T22:33:38.529Z,1.53
2024-02-26T22:36:26.007Z,1.40
2024-02-26T22:39:12.858Z,1.23
2024-02-26T22:42:03.154Z,1.50
2024-02-26T22:44:50.088Z,1.70
2024-02-26T22:47:37.020Z,1.40
2024-02-26T22:50:24.182Z,1.30
2024-02-26T22:53:11.154Z,1.40
2024-02-26T22:55:58.143Z,1.30
2024-02-26T22:58:44.970Z,1.03
2024-02-26T23:01:31.799Z,1.30
2024-02-26T23:04:18.670Z,1.20
2024-02-26T23:07:05.570Z,1.27
2024-02-26T23:09:52.475Z,1.20
2024-02-26T23:12:39.441Z,1.10
2024-02-26T23:15:26.472Z,1.00
2024-02-26T23:18:16.778Z,1.13
2024-02-26T23:21:03.897Z,1.10
2024-02-26T23:23:50.948Z,1.37
2024-02-26T23:26:37.828Z,1.50
2024-02-26T23:29:24.699Z,1.20
2024-02-26T23:32:11.549Z,1.40
2024-02-26T23:34:59.027Z,1.60
2024-02-26T23:37:45.938Z,1.17
2024-02-26T23:40:32.965Z,1.60
2024-02-26T23:43:20.121Z,1.30
2024-02-26T23:46:07.107Z,1.20
2024-02-26T23:48:54.054Z,1.40
2024-02-26T23:51:41.009Z,1.40
2024-02-26T23:54:27.929Z,1.63
2024-02-26T23:57:14.799Z,1.70
